Hope Valley, California
Current Conditions -  °F | °C
As of 4:53 PM on Sunday 21 Dec 2014 (Local Time) from KTVL Reporting Station
Broken Clouds Broken Clouds  
Wind Chill: 48°   Ceiling: 3500
Heat Index: 48°   Visibility: 10mi
Dew Point: 38°   Wind: 0mph
Humidity: 68%   Direction: NA
Pressure: 30.32"   Gusts: NA
Location:  38.6924°N, 119.835°W
Report Text: KTVL 220053Z AUTO 00000KT 10SM BKN035 09/03 A3032 RMK AO2 SLP242 T00890033
Loading
Personal Weather Stations






























Interactive Weather Map New forecast layout! Learn more

10-Day Weather Forecast

Advertisements
Track Severe Weather on mobile